Meloi — 3FOD — position and weather

sailwx.info

Track history (hours):
 
Tides and Currents Weather Stations Pressure Air Temp Water Temp Dewpoint Dewpoint Depression Visibility Wind Speed Wind Dir Waves Ship Positions

Meloi

Last reported at 2015-Feb-01 19:29 UTC. Time now 2015-Feb-02 00:15 UTC.
Position S 38°07' E 144°29'.

Length 180 m; draft 6.7 m.

Type: Cargo ship. MMSI: 351132000.

Date/timePositionNaut miles runAvg speedWind from/ knotsBaromVisibWave heightAir tempDewpointWater temp
2015-Feb-01 19:29S 38°07' E 144°29'14 4.1
2015-Feb-01 16:12S 38°20' E 144°36'19610.0
2015-Jan-31 20:30S 38°25' E 148°46'1112.0
2015-Jan-31 19:33S 38°19' E 148°58'3612.0
2015-Jan-31 16:33S 37°59' E 149°36'1211.6
2015-Jan-31 15:34S 37°52' E 149°48'1111.2
2015-Jan-31 14:33S 37°46' E 150°01'1410.6
2015-Jan-31 13:14S 37°38' E 150°15'15 8.7
2015-Jan-31 11:26S 37°25' E 150°25'8 9.1
2015-Jan-31 10:33S 37°17' E 150°29'258 8.5
2015-Jan-30 04:13S 33°17' E 152°24'8 8.8
2015-Jan-30 03:22S 33°10' E 152°28'7 8.1
2015-Jan-30 02:33S 33°04' E 152°31'9 9.1
2015-Jan-30 01:33S 32°56' E 152°35'9 8.9
2015-Jan-30 00:34S 32°48' E 152°39'9 9.2
2015-Jan-29 23:34S 32°39' E 152°43'294 9.8
2015-Jan-28 17:30S 27°53' E 154°00'1010.7
2015-Jan-28 16:33S 27°42' E 154°00'2310.7
2015-Jan-28 14:25S 27°20' E 154°00'1010.6
2015-Jan-28 13:31S 27°10' E 154°00'1111.1
2015-Jan-28 12:31S 26°59' E 153°59'1212.0
2015-Jan-28 11:32S 26°47' E 153°59'  
Track history (hours):
 
Tides and Currents Weather Stations Pressure Air Temp Water Temp Dewpoint Dewpoint Depression Visibility Wind Speed Wind Dir Waves Ship Positions

Meloi

Last reported at 2015-Feb-01 19:29 UTC. Time now 2015-Feb-02 00:15 UTC.
Position S 38°07' E 144°29'.

Length 180 m; draft 6.7 m.

Type: Cargo ship. MMSI: 351132000.

Date/timePositionNaut miles runAvg speedWind from/ knotsBaromVisibWave heightAir tempDewpointWater temp
2015-Feb-01 19:29S 38°07' E 144°29'14 4.1
2015-Feb-01 16:12S 38°20' E 144°36'19610.0
2015-Jan-31 20:30S 38°25' E 148°46'1112.0
2015-Jan-31 19:33S 38°19' E 148°58'3612.0
2015-Jan-31 16:33S 37°59' E 149°36'1211.6
2015-Jan-31 15:34S 37°52' E 149°48'1111.2
2015-Jan-31 14:33S 37°46' E 150°01'1410.6
2015-Jan-31 13:14S 37°38' E 150°15'15 8.7
2015-Jan-31 11:26S 37°25' E 150°25'8 9.1
2015-Jan-31 10:33S 37°17' E 150°29'258 8.5
2015-Jan-30 04:13S 33°17' E 152°24'8 8.8
2015-Jan-30 03:22S 33°10' E 152°28'7 8.1
2015-Jan-30 02:33S 33°04' E 152°31'9 9.1
2015-Jan-30 01:33S 32°56' E 152°35'9 8.9
2015-Jan-30 00:34S 32°48' E 152°39'9 9.2
2015-Jan-29 23:34S 32°39' E 152°43'294 9.8
2015-Jan-28 17:30S 27°53' E 154°00'1010.7
2015-Jan-28 16:33S 27°42' E 154°00'2310.7
2015-Jan-28 14:25S 27°20' E 154°00'1010.6
2015-Jan-28 13:31S 27°10' E 154°00'1111.1
2015-Jan-28 12:31S 26°59' E 153°59'1212.0
2015-Jan-28 11:32S 26°47' E 153°59'  

Dump ship's entire track history